Terminal Aerodrome Forecast
Issued by NWS

Home | Current Version | Previous Version | Text Only | Print | Product List | Glossary On
Versions: 1 2 3 4 5 6 7 8 9 10 11 12 13
000
FTUS42 TJSJ 280541
TAFKPK
TAF
TKPK 280541Z 2806/2906 06015G25KT P6SM SCT018
     FM281600 05025G35KT P6SM SCT020 BKN030 PROB30 2816/2818 -TSRA
      SCT012 BKN020 OVC030CB
     FM282200 07017KT P6SM SCT021
      AMD NOT SKED TIL 281100=

USA.gov is the U.S. government's official web portal to all federal, state and local government web resources and services.